Time;durP1;ratioP1;P1;durP2;ratioP2;P2;SDS_P1;SDS_P2;PMS_P1;PMS_P2;Temp;Humidity;BMP_temperature;BMP_pressure;BME280_temperature;BME280_humidity;BME280_pressure;Samples;Min_cycle;Max_cycle;Signal;HPM_P1;HPM_P2
2023/12/17 00:01:19;;;;;;;17.88;10.02;;;;;;;5.47;100.00;102769.22;5035176;28;20046;-72
2023/12/17 00:03:49;;;;;;;22.85;10.40;;;;;;;5.45;100.00;102773.59;5041024;28;20140;-71
2023/12/17 00:06:17;;;;;;;18.63;10.00;;;;;;;5.47;100.00;102771.84;5052296;28;20112;-71
2023/12/17 00:08:48;;;;;;;24.45;9.85;;;;;;;5.38;100.00;102756.84;5039944;28;20588;-72
2023/12/17 00:11:17;;;;;;;21.20;10.07;;;;;;;5.30;100.00;102753.25;5040635;28;20049;-73
2023/12/17 00:13:45;;;;;;;16.45;9.90;;;;;;;5.29;100.00;102770.78;5033689;28;20037;-71
2023/12/17 00:16:15;;;;;;;18.48;9.85;;;;;;;5.39;100.00;102773.50;5043388;28;20141;-71
2023/12/17 00:18:44;;;;;;;17.73;9.48;;;;;;;5.34;100.00;102769.94;5044537;28;20060;-71
2023/12/17 00:21:13;;;;;;;25.30;10.82;;;;;;;5.22;100.00;102761.03;5040317;28;20068;-71
2023/12/17 00:23:40;;;;;;;24.52;10.38;;;;;;;5.16;100.00;102770.59;5030016;28;20064;-72
2023/12/17 00:26:09;;;;;;;18.45;9.98;;;;;;;4.97;100.00;102777.34;5046124;28;20049;-71
2023/12/17 00:28:38;;;;;;;19.50;10.77;;;;;;;4.79;100.00;102777.94;5039325;28;20102;-75
2023/12/17 00:31:07;;;;;;;26.67;11.45;;;;;;;4.67;100.00;102785.66;5027904;28;20045;-73
2023/12/17 00:33:37;;;;;;;25.30;11.38;;;;;;;4.62;100.00;102781.19;5020212;28;20049;-71
2023/12/17 00:36:06;;;;;;;19.33;10.93;;;;;;;4.56;100.00;102777.59;5030024;28;20549;-73
2023/12/17 00:38:34;;;;;;;23.58;11.15;;;;;;;4.59;100.00;102787.25;5022738;28;20054;-72
2023/12/17 00:41:05;;;;;;;19.40;10.30;;;;;;;4.60;100.00;102789.03;5032554;28;20045;-71
2023/12/17 00:43:35;;;;;;;21.83;10.75;;;;;;;4.77;100.00;102794.53;5024000;28;20064;-72
2023/12/17 00:46:05;;;;;;;25.48;11.45;;;;;;;4.67;100.00;102769.00;5031664;28;20055;-72
2023/12/17 00:48:34;;;;;;;21.90;10.32;;;;;;;4.79;100.00;102779.69;5029218;28;20089;-71
2023/12/17 00:51:05;;;;;;;19.70;10.98;;;;;;;4.46;100.00;102749.44;5025644;28;20501;-73
2023/12/17 00:53:32;;;;;;;16.73;10.02;;;;;;;4.60;100.00;102789.03;5020544;28;20080;-72
2023/12/17 00:56:01;;;;;;;21.00;10.93;;;;;;;4.70;100.00;102795.31;5023738;28;20045;-72
2023/12/17 00:58:30;;;;;;;22.75;11.07;;;;;;;4.84;100.00;102802.53;5029399;28;20066;-72
2023/12/17 01:01:01;;;;;;;21.05;10.50;;;;;;;4.89;100.00;102786.84;5024104;28;20410;-71
2023/12/17 01:03:31;;;;;;;20.20;10.75;;;;;;;4.97;100.00;102795.72;5007621;28;20127;-71
2023/12/17 01:05:59;;;;;;;23.73;11.07;;;;;;;4.89;100.00;102776.34;5026756;28;20049;-72
2023/12/17 01:08:30;;;;;;;19.33;10.40;;;;;;;4.91;100.00;102779.88;5013387;28;20640;-73
2023/12/17 01:10:59;;;;;;;19.30;10.48;;;;;;;4.80;100.00;102770.97;5026188;28;20595;-72
2023/12/17 01:13:29;;;;;;;24.05;11.38;;;;;;;4.83;100.00;102774.53;5021950;28;20045;-70
2023/12/17 01:15:59;;;;;;;19.25;10.07;;;;;;;4.87;100.00;102767.56;5027394;28;20115;-71
2023/12/17 01:18:31;;;;;;;18.05;10.85;;;;;;;4.85;100.00;102771.91;5016464;28;20076;-71
2023/12/17 01:21:04;;;;;;;20.70;10.80;;;;;;;4.78;100.00;102767.44;5042428;28;20046;-73
2023/12/17 01:23:36;;;;;;;25.10;11.52;;;;;;;4.79;100.00;102790.19;5020604;28;20091;-71
2023/12/17 01:26:07;;;;;;;20.00;11.15;;;;;;;4.78;100.00;102786.69;5029948;28;20053;-71
2023/12/17 01:28:35;;;;;;;27.52;13.35;;;;;;;4.80;100.00;102778.84;5014605;28;20114;-72
2023/12/17 01:31:03;;;;;;;24.75;11.05;;;;;;;4.90;100.00;102772.84;5030577;28;20050;-71
2023/12/17 01:33:33;;;;;;;20.85;11.20;;;;;;;4.86;100.00;102769.31;5023068;28;20049;-71
2023/12/17 01:36:03;;;;;;;20.70;10.73;;;;;;;4.88;100.00;102769.31;5027387;28;20111;-72
2023/12/17 01:38:31;;;;;;;21.65;11.35;;;;;;;4.80;100.00;102747.34;5030567;28;20691;-71
2023/12/17 01:41:01;;;;;;;27.17;11.75;;;;;;;4.85;100.00;102758.78;5028433;28;20104;-71
2023/12/17 01:43:30;;;;;;;21.93;11.53;;;;;;;4.88;100.00;102778.06;5027055;28;20103;-71
2023/12/17 01:45:58;;;;;;;24.83;11.50;;;;;;;4.81;100.00;102781.50;5028746;28;20069;-72
2023/12/17 01:48:27;;;;;;;23.15;11.65;;;;;;;4.82;100.00;102780.63;5027277;28;20046;-72
2023/12/17 01:50:56;;;;;;;19.63;11.07;;;;;;;4.80;100.00;102776.22;5030033;28;20050;-71
2023/12/17 01:53:27;;;;;;;23.48;11.52;;;;;;;4.81;100.00;102784.09;5021018;28;20050;-71
2023/12/17 01:55:56;;;;;;;23.83;11.57;;;;;;;4.84;100.00;102799.91;5030797;28;20052;-73
2023/12/17 01:58:26;;;;;;;23.52;11.90;;;;;;;4.73;100.00;102776.97;5028585;28;20056;-73
2023/12/17 02:00:57;;;;;;;24.67;12.27;;;;;;;4.87;100.00;102791.22;5035914;28;20052;-71
2023/12/17 02:03:25;;;;;;;22.02;11.40;;;;;;;4.84;100.00;102788.53;5029483;28;20053;-71
2023/12/17 02:05:54;;;;;;;22.60;11.43;;;;;;;4.93;100.00;102783.41;5032709;28;20060;-71
2023/12/17 02:08:25;;;;;;;23.33;11.80;;;;;;;4.90;100.00;102770.22;5035940;28;20057;-72
2023/12/17 02:10:54;;;;;;;23.42;11.65;;;;;;;4.98;100.00;102775.59;5041292;28;20050;-72
2023/12/17 02:13:23;;;;;;;23.08;11.55;;;;;;;4.99;100.00;102775.63;5016961;28;20057;-72
2023/12/17 02:15:55;;;;;;;24.55;12.10;;;;;;;5.02;100.00;102770.41;5035761;28;20041;-71
2023/12/17 02:18:24;;;;;;;19.73;11.25;;;;;;;4.80;100.00;102748.22;5024086;28;20045;-70
2023/12/17 02:20:54;;;;;;;21.17;11.38;;;;;;;5.00;100.00;102784.38;5038014;28;20049;-71
2023/12/17 02:23:24;;;;;;;24.95;11.80;;;;;;;4.98;100.00;102775.59;5032928;28;20057;-69
2023/12/17 02:25:52;;;;;;;23.03;11.80;;;;;;;4.98;100.00;102773.84;5034606;28;20081;-71
2023/12/17 02:28:20;;;;;;;23.35;11.57;;;;;;;4.90;100.00;102767.59;5034216;28;20591;-75
2023/12/17 02:30:48;;;;;;;21.08;11.15;;;;;;;4.89;100.00;102760.56;5016758;28;20103;-73
2023/12/17 02:33:16;;;;;;;24.42;11.30;;;;;;;4.92;100.00;102765.88;5033086;28;20052;-71
2023/12/17 02:35:46;;;;;;;21.02;12.68;;;;;;;4.94;100.00;102762.41;5006810;28;20505;-72
2023/12/17 02:38:16;;;;;;;21.17;12.07;;;;;;;4.93;100.00;102763.28;5031832;28;20045;-72
2023/12/17 02:40:55;;;;;;;23.95;12.13;;;;;;;4.91;100.00;102767.63;5036122;28;20046;-72
2023/12/17 02:43:27;;;;;;;21.48;12.63;;;;;;;4.74;100.00;102755.09;5027431;28;20418;-70
2023/12/17 02:45:57;;;;;;;22.60;12.80;;;;;;;4.55;100.00;102759.22;5026577;28;20046;-74
2023/12/17 02:48:27;;;;;;;22.30;12.73;;;;;;;4.52;100.00;102739.06;5030220;28;20048;-73
2023/12/17 02:50:56;;;;;;;25.55;12.43;;;;;;;4.74;100.00;102749.84;5027623;28;20513;-72
2023/12/17 02:53:25;;;;;;;24.05;11.90;;;;;;;4.81;100.00;102741.22;5028031;28;20426;-71
2023/12/17 02:55:55;;;;;;;26.23;13.00;;;;;;;4.81;100.00;102734.22;5029182;28;20041;-71
2023/12/17 02:58:24;;;;;;;22.48;12.40;;;;;;;4.78;100.00;102721.06;5034155;28;20057;-73
2023/12/17 03:00:52;;;;;;;22.55;12.80;;;;;;;4.85;100.00;102727.28;5033148;28;20457;-71
2023/12/17 03:03:23;;;;;;;23.48;12.60;;;;;;;4.81;100.00;102739.47;5028635;28;20151;-71
2023/12/17 03:05:51;;;;;;;21.42;11.70;;;;;;;4.86;100.00;102736.94;5026962;28;20060;-71
2023/12/17 03:08:19;;;;;;;23.00;11.48;;;;;;;4.88;100.00;102732.56;5030182;28;20046;-71
2023/12/17 03:10:49;;;;;;;24.02;11.57;;;;;;;4.83;100.00;102713.25;5028111;28;20037;-73
2023/12/17 03:13:18;;;;;;;23.23;12.30;;;;;;;4.83;100.00;102724.66;5029197;28;20084;-71
2023/12/17 03:15:46;;;;;;;20.02;11.20;;;;;;;4.77;100.00;102721.03;5022168;28;20120;-72
2023/12/17 03:18:16;;;;;;;18.02;10.65;;;;;;;4.77;100.00;102711.41;5030285;28;20068;-71
2023/12/17 03:20:46;;;;;;;24.42;12.45;;;;;;;4.85;100.00;102711.53;5023257;28;20057;-72
2023/12/17 03:23:15;;;;;;;19.48;11.02;;;;;;;4.79;100.00;102700.94;5034876;28;20037;-71
2023/12/17 03:25:44;;;;;;;21.10;11.20;;;;;;;4.92;100.00;102718.63;5026715;28;20410;-73
2023/12/17 03:28:12;;;;;;;18.15;10.82;;;;;;;4.81;100.00;102699.22;5029714;28;20105;-71
2023/12/17 03:30:41;;;;;;;22.08;10.93;;;;;;;4.81;100.00;102704.47;5035749;28;20069;-72
2023/12/17 03:33:10;;;;;;;21.73;11.07;;;;;;;4.89;100.00;102713.31;5030840;28;20132;-72
2023/12/17 03:35:40;;;;;;;19.98;11.05;;;;;;;4.88;100.00;102706.31;5025811;28;20139;-72
2023/12/17 03:38:09;;;;;;;22.63;11.10;;;;;;;4.98;100.00;102725.72;5033521;28;20131;-72
2023/12/17 03:40:37;;;;;;;24.15;12.20;;;;;;;4.97;100.00;102726.56;5033849;28;20041;-71
2023/12/17 03:43:05;;;;;;;24.60;11.93;;;;;;;5.00;100.00;102730.13;4994902;28;20049;-71
2023/12/17 03:45:35;;;;;;;27.50;11.93;;;;;;;4.98;100.00;102723.06;5007446;28;20049;-71
2023/12/17 03:48:08;;;;;;;22.02;11.57;;;;;;;4.94;100.00;102727.41;5005532;28;20052;-71
2023/12/17 03:50:39;;;;;;;18.38;10.63;;;;;;;4.98;100.00;102723.97;5031696;28;20069;-72
2023/12/17 03:53:10;;;;;;;21.98;11.52;;;;;;;5.04;100.00;102728.38;5030628;28;20053;-72
2023/12/17 03:55:38;;;;;;;19.70;11.23;;;;;;;5.04;100.00;102731.00;5023035;28;20053;-72
2023/12/17 03:58:06;;;;;;;25.33;12.15;;;;;;;5.05;100.00;102720.53;5028277;28;20051;-72
2023/12/17 04:00:36;;;;;;;20.98;10.75;;;;;;;5.04;100.00;102724.03;5028419;28;20045;-73
2023/12/17 04:03:06;;;;;;;22.42;11.50;;;;;;;5.14;100.00;102722.41;5015839;28;20297;-72
2023/12/17 04:05:34;;;;;;;23.25;12.13;;;;;;;5.08;100.00;102722.31;5022704;28;20071;-72
2023/12/17 04:08:02;;;;;;;24.27;11.77;;;;;;;5.01;100.00;102717.88;5019191;28;20063;-72
2023/12/17 04:10:30;;;;;;;22.55;11.60;;;;;;;4.97;100.00;102714.31;5030825;28;20057;-71
2023/12/17 04:12:59;;;;;;;25.05;11.85;;;;;;;4.96;100.00;102715.19;5021666;28;20071;-71
2023/12/17 04:15:27;;;;;;;22.05;12.35;;;;;;;4.91;100.00;102722.09;5027573;28;20063;-70
2023/12/17 04:17:55;;;;;;;21.10;11.95;;;;;;;4.90;100.00;102725.59;5022517;28;20052;-71
2023/12/17 04:20:25;;;;;;;22.70;12.63;;;;;;;4.80;100.00;102723.72;5033692;28;20128;-71
2023/12/17 04:22:54;;;;;;;21.55;11.95;;;;;;;4.80;100.00;102724.59;5037812;28;20048;-71
2023/12/17 04:25:25;;;;;;;19.70;11.73;;;;;;;4.76;100.00;102712.28;5027280;28;20080;-70
2023/12/17 04:27:52;;;;;;;22.42;12.48;;;;;;;4.77;100.00;102702.66;5034367;28;20186;-73
2023/12/17 04:30:21;;;;;;;26.25;12.55;;;;;;;4.84;100.00;102715.03;5031764;28;20526;-72
2023/12/17 04:32:49;;;;;;;26.15;13.07;;;;;;;4.88;100.00;102701.06;5014151;28;20052;-70
2023/12/17 04:35:18;;;;;;;21.08;12.40;;;;;;;4.88;100.00;102695.81;5008778;28;20048;-70
2023/12/17 04:37:47;;;;;;;26.38;12.13;;;;;;;4.89;100.00;102697.56;5033327;28;20045;-72
2023/12/17 04:40:16;;;;;;;20.20;12.73;;;;;;;4.89;100.00;102692.31;5016919;28;20136;-72
2023/12/17 04:42:45;;;;;;;23.52;12.43;;;;;;;4.92;100.00;102692.38;5027985;28;20096;-72
2023/12/17 04:45:15;;;;;;;21.88;11.65;;;;;;;4.90;100.00;102688.84;5025326;28;20436;-72
2023/12/17 04:47:44;;;;;;;27.15;12.27;;;;;;;4.93;100.00;102691.50;4983304;28;20049;-71
2023/12/17 04:50:15;;;;;;;22.38;12.73;;;;;;;4.87;100.00;102678.31;5010927;28;20041;-72
2023/12/17 04:52:44;;;;;;;22.70;11.98;;;;;;;4.93;100.00;102694.13;5014756;28;20045;-72
2023/12/17 04:55:14;;;;;;;21.00;12.32;;;;;;;4.88;100.00;102704.56;5004411;28;20041;-72
2023/12/17 04:57:43;;;;;;;23.45;13.50;;;;;;;4.77;100.00;102692.16;5027735;28;20151;-73
2023/12/17 05:00:12;;;;;;;22.45;12.90;;;;;;;4.65;100.00;102692.00;5016075;28;20105;-71
2023/12/17 05:02:41;;;;;;;26.35;13.75;;;;;;;4.51;100.00;102694.44;5029854;28;20045;-72
2023/12/17 05:05:11;;;;;;;24.27;14.20;;;;;;;4.22;100.00;102670.41;5017107;28;20050;-72
2023/12/17 05:07:39;;;;;;;24.02;13.30;;;;;;;4.34;100.00;102691.56;5025747;28;20449;-72
2023/12/17 05:10:09;;;;;;;29.58;14.75;;;;;;;4.27;100.00;102694.94;5036674;28;20051;-72
2023/12/17 05:12:38;;;;;;;27.10;14.33;;;;;;;4.26;100.00;102697.53;5029894;28;20056;-71
2023/12/17 05:15:08;;;;;;;21.23;14.00;;;;;;;4.20;100.00;102699.22;5024795;28;20380;-70
2023/12/17 05:17:36;;;;;;;25.52;14.00;;;;;;;4.15;100.00;102703.50;5026425;28;20057;-72
2023/12/17 05:20:07;;;;;;;22.50;13.55;;;;;;;4.29;100.00;102694.97;5028801;28;20171;-72
2023/12/17 05:22:35;;;;;;;30.15;13.95;;;;;;;4.24;100.00;102663.44;5012471;28;20574;-70
2023/12/17 05:25:05;;;;;;;24.73;13.68;;;;;;;4.47;100.00;102680.38;5009076;28;20454;-70
2023/12/17 05:27:35;;;;;;;26.10;13.82;;;;;;;4.57;100.00;102684.00;5026076;28;20053;-70
2023/12/17 05:30:09;;;;;;;24.23;14.07;;;;;;;4.57;100.00;102670.88;5026337;28;20051;-71
2023/12/17 05:32:37;;;;;;;29.10;13.95;;;;;;;4.62;100.00;102682.34;5037546;28;20048;-72
2023/12/17 05:35:06;;;;;;;22.38;13.90;;;;;;;4.60;100.00;102681.44;5024610;28;20053;-71
2023/12/17 05:37:34;;;;;;;25.10;13.07;;;;;;;4.65;100.00;102677.13;5012633;28;20057;-72
2023/12/17 05:40:02;;;;;;;23.65;14.52;;;;;;;4.65;100.00;102674.50;5032358;28;20041;-72
2023/12/17 05:42:32;;;;;;;24.73;14.07;;;;;;;4.70;100.00;102678.09;5002390;28;20049;-70
2023/12/17 05:45:00;;;;;;;29.48;15.35;;;;;;;4.72;100.00;102686.00;5026245;28;20107;-72
2023/12/17 05:47:34;;;;;;;22.90;14.10;;;;;;;4.71;100.00;102682.47;5031824;28;20053;-71
2023/12/17 05:50:04;;;;;;;30.73;15.60;;;;;;;4.67;100.00;102675.41;5035372;28;20045;-71
2023/12/17 05:52:33;;;;;;;31.65;16.58;;;;;;;4.53;100.00;102690.97;5031812;28;20053;-72
2023/12/17 05:55:01;;;;;;;31.17;16.10;;;;;;;4.44;100.00;102698.69;5028719;28;20041;-73
2023/12/17 05:57:28;;;;;;;35.47;16.90;;;;;;;4.42;100.00;102704.78;5028775;28;20065;-73
2023/12/17 05:59:57;;;;;;;30.60;15.88;;;;;;;4.39;100.00;102692.53;5034133;28;20069;-71
2023/12/17 06:02:25;;;;;;;32.97;16.10;;;;;;;4.42;100.00;102686.41;5030178;28;20053;-71
2023/12/17 06:04:56;;;;;;;34.85;16.80;;;;;;;4.50;100.00;102700.53;5010740;28;20049;-71
2023/12/17 06:07:24;;;;;;;30.60;16.23;;;;;;;4.50;100.00;102685.69;5027935;28;20049;-70
2023/12/17 06:09:52;;;;;;;31.05;15.68;;;;;;;4.59;100.00;102700.66;5018550;28;20049;-72
2023/12/17 06:12:20;;;;;;;29.65;15.70;;;;;;;4.43;100.00;102691.69;5029048;28;20076;-71
2023/12/17 06:14:51;;;;;;;31.08;16.33;;;;;;;4.37;100.00;102702.09;5023492;28;20033;-72
2023/12/17 06:17:20;;;;;;;27.30;16.02;;;;;;;4.29;100.00;102703.72;5026871;28;20481;-72
2023/12/17 06:19:48;;;;;;;27.55;15.00;;;;;;;4.26;100.00;102703.66;5028539;28;20045;-70
2023/12/17 06:22:19;;;;;;;31.55;15.38;;;;;;;4.39;100.00;102705.63;5032863;28;20053;-72
2023/12/17 06:24:48;;;;;;;27.05;14.95;;;;;;;4.42;100.00;102710.91;5031145;28;20124;-73
2023/12/17 06:27:18;;;;;;;26.10;14.75;;;;;;;4.49;100.00;102715.41;5025217;28;20045;-71
2023/12/17 06:29:49;;;;;;;27.30;15.35;;;;;;;4.53;100.00;102708.47;5029758;28;20037;-72
2023/12/17 06:32:19;;;;;;;;;;;;;;;4.56;100.00;102714.63;5017059;28;20683;-71
2023/12/17 06:34:48;;;;;;;31.23;15.40;;;;;;;4.52;100.00;102715.44;5026844;28;20468;-73
2023/12/17 06:37:18;;;;;;;30.83;15.07;;;;;;;4.56;100.00;102709.38;5012857;28;20528;-71
2023/12/17 06:39:47;;;;;;;29.10;15.52;;;;;;;4.70;100.00;102708.72;5030546;28;20151;-73
2023/12/17 06:42:16;;;;;;;26.80;14.67;;;;;;;4.69;100.00;102709.56;5019341;28;20053;-71
2023/12/17 06:44:45;;;;;;;26.25;14.32;;;;;;;4.75;100.00;102710.50;5013296;28;20483;-71
2023/12/17 06:47:15;;;;;;;27.38;14.45;;;;;;;4.79;100.00;102708.81;5010276;28;20103;-71
2023/12/17 06:50:00;;;;;;;24.15;14.00;;;;;;;4.82;100.00;102699.25;5045303;28;20140;-74
2023/12/17 06:52:38;;;;;;;28.00;15.27;;;;;;;4.78;100.00;102704.44;5034545;28;20136;-71
2023/12/17 06:55:07;;;;;;;27.60;15.35;;;;;;;4.76;100.00;102706.16;5028119;28;20049;-71
2023/12/17 06:57:35;;;;;;;26.30;14.05;;;;;;;4.66;100.00;102685.91;5041515;28;20051;-71
2023/12/17 07:00:07;;;;;;;28.05;15.05;;;;;;;4.68;100.00;102697.31;5018707;28;20042;-71
2023/12/17 07:02:49;;;;;;;31.58;14.48;;;;;;;4.68;100.00;102694.69;5028105;28;20136;-72
2023/12/17 07:05:17;;;;;;;32.95;14.85;;;;;;;4.75;100.00;102704.38;5025439;28;20605;-72
2023/12/17 07:07:49;;;;;;;27.75;14.77;;;;;;;4.75;100.00;102699.13;5025034;28;20099;-73
2023/12/17 07:10:25;;;;;;;29.83;15.35;;;;;;;4.75;100.00;102702.63;5027792;28;20061;-72
2023/12/17 07:12:53;;;;;;;29.70;14.73;;;;;;;4.71;100.00;102692.97;5030534;28;20045;-73
2023/12/17 07:15:21;;;;;;;28.55;15.57;;;;;;;4.68;100.00;102692.94;5028104;28;20049;-70
2023/12/17 07:17:51;;;;;;;29.48;15.68;;;;;;;4.61;100.00;102679.69;5025863;28;20462;-72
2023/12/17 07:20:20;;;;;;;31.35;15.40;;;;;;;4.67;100.00;102695.53;5035287;28;20148;-71
2023/12/17 07:22:51;;;;;;;32.47;15.77;;;;;;;4.68;100.00;102687.69;5015125;28;20491;-72
2023/12/17 07:25:20;;;;;;;35.03;15.15;;;;;;;4.73;100.00;102687.72;5035265;28;20103;-72
2023/12/17 07:27:49;;;;;;;33.92;15.57;;;;;;;4.61;100.00;102684.94;5027463;28;20044;-74
2023/12/17 07:30:20;;;;;;;37.75;16.23;;;;;;;4.62;100.00;102705.06;5028994;28;20128;-71
2023/12/17 07:32:49;;;;;;;28.40;15.63;;;;;;;4.51;100.00;102699.69;5029470;28;20055;-73
2023/12/17 07:35:18;;;;;;;34.00;16.55;;;;;;;4.45;100.00;102704.81;5024349;28;20049;-72
2023/12/17 07:37:51;;;;;;;;;;;;;;;4.39;100.00;102710.88;4993565;28;20498;-71
2023/12/17 07:40:21;;;;;;;38.08;16.33;;;;;;;4.32;100.00;102714.25;5034477;28;19925;-73
2023/12/17 07:42:51;;;;;;;39.30;17.48;;;;;;;4.14;100.00;102708.72;5024227;28;20045;-72
2023/12/17 07:45:21;;;;;;;42.88;18.60;;;;;;;4.00;100.00;102716.34;5025172;28;20543;-71
2023/12/17 07:47:49;;;;;;;34.25;18.58;;;;;;;3.95;100.00;102718.00;5026326;28;20119;-71
2023/12/17 07:50:19;;;;;;;;;;;;;;;3.95;100.00;102722.34;5032778;28;20045;-72
2023/12/17 07:52:48;;;;;;;43.08;19.05;;;;;;;3.98;100.00;102711.94;5034928;28;19927;-72
2023/12/17 07:55:16;;;;;;;42.50;18.92;;;;;;;3.96;100.00;102711.91;5031596;28;20038;-72
2023/12/17 07:57:46;;;;;;;40.55;18.77;;;;;;;3.95;100.00;102714.50;5024879;28;20133;-72
2023/12/17 08:00:15;;;;;;;46.45;20.20;;;;;;;3.90;100.00;102697.84;5029820;28;20069;-72
2023/12/17 08:02:45;;;;;;;45.00;20.77;;;;;;;3.95;100.00;102696.16;5012016;28;20053;-71
2023/12/17 08:05:14;;;;;;;46.90;20.92;;;;;;;3.96;100.00;102706.66;5011959;28;20087;-73
2023/12/17 08:07:41;;;;;;;47.63;21.50;;;;;;;3.79;100.00;102667.06;5024677;28;20084;-71
2023/12/17 08:10:10;;;;;;;44.80;21.23;;;;;;;3.99;100.00;102693.63;5013862;28;20087;-72
2023/12/17 08:12:41;;;;;;;50.42;21.17;;;;;;;4.01;100.00;102705.00;5032380;28;20469;-72
2023/12/17 08:15:12;;;;;;;48.05;19.92;;;;;;;4.08;100.00;102706.91;5027886;28;20049;-70
2023/12/17 08:17:40;;;;;;;42.47;20.27;;;;;;;4.19;100.00;102709.69;5023156;28;20054;-70
2023/12/17 08:20:09;;;;;;;45.47;19.58;;;;;;;4.35;100.00;102722.19;5032739;28;20080;-70
2023/12/17 08:22:38;;;;;;;43.25;19.80;;;;;;;4.31;100.00;102738.72;5028641;28;20056;-71
2023/12/17 08:25:07;;;;;;;44.42;18.05;;;;;;;4.21;100.00;102721.09;5017866;28;20080;-71
2023/12/17 08:27:36;;;;;;;38.75;18.25;;;;;;;4.20;100.00;102727.19;5022173;28;20042;-71
2023/12/17 08:30:06;;;;;;;38.33;18.25;;;;;;;4.08;100.00;102719.13;5029451;28;20100;-72
2023/12/17 08:32:37;;;;;;;45.92;18.20;;;;;;;4.06;100.00;102731.31;5031930;28;20041;-71
2023/12/17 08:35:06;;;;;;;47.60;18.83;;;;;;;4.10;100.00;102738.34;5012708;28;20662;-70
2023/12/17 08:37:34;;;;;;;39.03;17.35;;;;;;;4.06;100.00;102724.34;5023034;28;20052;-71
2023/12/17 08:40:03;;;;;;;41.58;17.60;;;;;;;4.26;100.00;102740.38;5028422;28;20577;-72
2023/12/17 08:42:31;;;;;;;47.25;18.15;;;;;;;4.40;100.00;102745.88;5023291;28;20144;-71
2023/12/17 08:45:01;;;;;;;42.30;17.98;;;;;;;4.38;100.00;102724.84;5034771;28;20050;-72
2023/12/17 08:47:29;;;;;;;39.85;16.33;;;;;;;4.54;100.00;102725.97;5030150;28;20041;-71
2023/12/17 08:49:59;;;;;;;40.65;16.88;;;;;;;4.68;100.00;102739.28;5044732;28;20038;-71
2023/12/17 08:52:29;;;;;;;34.03;15.57;;;;;;;4.78;100.00;102738.56;5042374;28;20327;-72
2023/12/17 08:54:59;;;;;;;40.85;16.48;;;;;;;4.84;100.00;102742.16;5044319;28;20498;-70
2023/12/17 08:57:27;;;;;;;38.05;16.20;;;;;;;4.84;100.00;102720.28;5031143;28;20125;-70
2023/12/17 08:59:57;;;;;;;37.08;16.15;;;;;;;4.87;100.00;102731.72;5036879;28;20072;-71
2023/12/17 09:02:26;;;;;;;32.25;15.20;;;;;;;4.55;100.00;102670.91;5037421;28;20624;-70
2023/12/17 09:04:55;;;;;;;33.50;15.52;;;;;;;4.99;100.00;102736.22;5034908;28;20056;-70
2023/12/17 09:07:27;;;;;;;33.17;14.95;;;;;;;5.10;100.00;102739.00;5027591;28;20055;-70
2023/12/17 09:09:56;;;;;;;;;;;;;;;5.10;100.00;102734.63;5040289;28;20057;-72
2023/12/17 09:12:25;;;;;;;30.90;12.77;;;;;;;4.97;100.00;102711.69;5041881;28;19936;-73
2023/12/17 09:14:52;;;;;;;29.77;13.15;;;;;;;5.10;100.00;102737.25;5036029;28;20061;-71
2023/12/17 09:17:21;;;;;;;32.58;14.32;;;;;;;5.11;100.00;102736.38;5029338;28;20045;-72
2023/12/17 09:19:49;;;;;;;35.08;13.15;;;;;;;5.16;100.00;102733.81;5019910;28;20131;-72
2023/12/17 09:22:18;;;;;;;27.77;13.23;;;;;;;5.16;100.00;102745.22;5036336;28;20053;-71
2023/12/17 09:24:47;;;;;;;28.10;12.52;;;;;;;5.18;100.00;102748.75;5025623;28;20103;-72
2023/12/17 09:27:16;;;;;;;24.85;12.57;;;;;;;5.16;100.00;102736.44;5015776;28;21001;-73
2023/12/17 09:29:45;;;;;;;26.50;12.43;;;;;;;5.19;100.00;102745.25;5015474;28;20237;-71
2023/12/17 09:32:14;;;;;;;25.77;12.75;;;;;;;5.27;100.00;102746.22;4990931;28;20323;-71
2023/12/17 09:34:42;;;;;;;31.38;12.55;;;;;;;5.38;100.00;102755.97;5002356;28;20286;-72
2023/12/17 09:37:10;;;;;;;25.55;11.95;;;;;;;5.39;100.00;102748.09;5003176;28;20068;-71
2023/12/17 09:39:40;;;;;;;20.45;11.15;;;;;;;5.33;100.00;102739.28;5022261;28;20042;-72
2023/12/17 09:42:09;;;;;;;26.08;12.57;;;;;;;5.23;100.00;102728.66;5029410;28;20116;-71
2023/12/17 09:44:37;;;;;;;30.15;13.77;;;;;;;5.39;100.00;102745.47;5011353;28;20034;-72
2023/12/17 09:47:07;;;;;;;28.08;13.50;;;;;;;5.41;100.00;102746.38;5023045;28;20425;-71
2023/12/17 09:49:36;;;;;;;28.35;13.27;;;;;;;5.40;100.00;102738.47;4989062;28;20124;-72
2023/12/17 09:52:08;;;;;;;27.48;13.10;;;;;;;5.49;100.00;102747.38;5025601;28;20053;-72
2023/12/17 09:54:38;;;;;;;27.70;13.80;;;;;;;5.48;100.00;102742.09;5024161;28;20050;-72
2023/12/17 09:57:08;;;;;;;25.00;12.30;;;;;;;5.44;100.00;102741.16;5019222;28;20539;-71
2023/12/17 09:59:37;;;;;;;32.15;13.68;;;;;;;5.54;100.00;102748.28;5011842;28;20480;-72
2023/12/17 10:02:07;;;;;;;24.92;12.07;;;;;;;5.63;100.00;102740.50;5028186;28;20121;-71
2023/12/17 10:04:36;;;;;;;;;;;;;;;5.61;100.00;102736.09;5046214;28;20052;-71
2023/12/17 10:07:05;;;;;;;28.67;13.80;;;;;;;5.65;100.00;102735.28;5016427;28;19928;-72
2023/12/17 10:09:35;;;;;;;33.38;13.40;;;;;;;5.68;100.00;102735.28;5042317;28;20072;-73
2023/12/17 10:12:09;;;;;;;26.88;13.15;;;;;;;5.70;100.00;102741.44;5029266;28;20100;-70
2023/12/17 10:14:40;;;;;;;27.13;13.40;;;;;;;5.68;100.00;102734.41;5027063;28;20049;-71
2023/12/17 10:17:08;;;;;;;;;;;;;;;5.65;100.00;102727.38;5022809;28;20049;-72
2023/12/17 10:19:38;;;;;;;31.77;15.45;;;;;;;5.65;100.00;102716.88;5032837;28;19938;-71
2023/12/17 10:22:11;;;;;;;32.03;14.68;;;;;;;5.69;100.00;102728.28;5033408;28;20080;-71
2023/12/17 10:24:41;;;;;;;28.65;15.00;;;;;;;5.64;100.00;102709.84;5033356;28;20064;-73
2023/12/17 10:27:18;;;;;;;32.08;16.00;;;;;;;5.69;100.00;102708.13;5039722;28;20045;-70
2023/12/17 10:29:49;;;;;;;28.65;16.58;;;;;;;5.71;100.00;102714.28;5050832;28;20042;-69
2023/12/17 10:32:22;;;;;;;30.40;17.95;;;;;;;5.77;100.00;102706.47;5047150;28;20096;-71
2023/12/17 10:34:51;;;;;;;32.30;17.00;;;;;;;5.79;100.00;102699.50;5022066;28;20099;-72
2023/12/17 10:37:22;;;;;;;33.53;17.88;;;;;;;5.90;100.00;102696.97;5033137;28;20073;-70
2023/12/17 10:39:51;;;;;;;28.63;16.33;;;;;;;5.87;100.00;102689.03;5056836;28;20120;-71
2023/12/17 10:42:22;;;;;;;30.20;16.75;;;;;;;5.70;100.00;102669.59;5044286;28;20045;-71
2023/12/17 10:44:54;;;;;;;29.73;15.65;;;;;;;5.78;100.00;102686.31;5036879;28;20040;-72
2023/12/17 10:47:24;;;;;;;30.30;15.75;;;;;;;5.74;100.00;102676.63;5029815;28;20050;-70
2023/12/17 10:49:55;;;;;;;26.00;14.23;;;;;;;5.75;100.00;102679.28;5036383;28;20556;-73
2023/12/17 10:52:25;;;;;;;28.83;14.63;;;;;;;5.72;100.00;102676.63;5015632;28;20069;-71
2023/12/17 10:54:53;;;;;;;29.45;14.85;;;;;;;5.70;100.00;102674.84;5018433;28;20541;-71
2023/12/17 10:57:26;;;;;;;25.35;14.05;;;;;;;5.59;100.00;102656.34;5012201;28;20061;-70
2023/12/17 10:59:55;;;;;;;28.00;15.18;;;;;;;5.63;100.00;102660.78;5028650;28;20072;-70
2023/12/17 11:02:29;;;;;;;30.27;14.50;;;;;;;5.58;100.00;102654.59;5032156;28;20115;-73
2023/12/17 11:04:58;;;;;;;30.05;14.77;;;;;;;5.59;100.00;102648.47;5034049;28;20053;-70
2023/12/17 11:07:27;;;;;;;32.17;16.85;;;;;;;5.59;100.00;102637.94;5024755;28;20510;-71
2023/12/17 11:10:08;;;;;;;30.48;16.10;;;;;;;5.59;100.00;102638.84;5030069;28;20046;-72
2023/12/17 11:12:40;;;;;;;33.47;16.55;;;;;;;5.62;100.00;102640.63;5031764;28;20045;-71
2023/12/17 11:15:09;;;;;;;32.55;16.27;;;;;;;5.67;100.00;102638.88;5030578;28;20140;-72
2023/12/17 11:17:38;;;;;;;31.63;16.05;;;;;;;5.67;100.00;102633.63;5038352;28;20069;-71
2023/12/17 11:20:11;;;;;;;24.77;15.23;;;;;;;5.65;100.00;102630.13;5032184;28;20046;-71
2023/12/17 11:22:40;;;;;;;27.92;15.82;;;;;;;5.62;100.00;102633.63;5033816;28;20045;-72